createdAt,value
2022-10-05T00:01:41.744Z,35.70
2022-10-05T00:04:15.753Z,36.30
2022-10-05T00:06:47.706Z,35.90
2022-10-05T00:09:20.900Z,39.20
2022-10-05T00:11:47.716Z,45.80
2022-10-05T00:14:22.783Z,48.40
2022-10-05T00:16:49.625Z,39.60
2022-10-05T00:19:23.513Z,37.80
2022-10-05T00:21:50.080Z,55.00
2022-10-05T00:24:19.243Z,44.10
2022-10-05T00:26:46.399Z,41.70
2022-10-05T00:29:18.995Z,36.20
2022-10-05T00:31:45.668Z,33.00
2022-10-05T00:34:12.417Z,39.40
2022-10-05T00:36:39.496Z,37.00
2022-10-05T00:39:05.989Z,36.20
2022-10-05T00:41:42.741Z,36.20
2022-10-05T00:44:23.824Z,40.40
2022-10-05T00:47:28.265Z,32.60
2022-10-05T00:52:44.171Z,34.70
2022-10-05T00:55:18.709Z,35.60
2022-10-05T00:58:04.988Z,33.60
2022-10-05T01:00:31.690Z,33.90
2022-10-05T01:02:59.694Z,31.50
2022-10-05T01:05:44.496Z,30.40
2022-10-05T01:08:35.743Z,29.30
2022-10-05T01:11:17.956Z,31.80
2022-10-05T01:13:44.421Z,30.40
2022-10-05T01:16:14.202Z,31.10
2022-10-05T01:19:07.509Z,30.10
2022-10-05T01:21:38.900Z,30.60
2022-10-05T01:24:22.809Z,31.40
2022-10-05T01:29:32.416Z,49.60
2022-10-05T01:32:07.737Z,43.60
2022-10-05T01:34:41.783Z,34.70
2022-10-05T01:37:23.881Z,29.60
2022-10-05T01:40:02.817Z,31.70
2022-10-05T01:42:50.610Z,31.00
2022-10-05T01:45:44.247Z,33.30
2022-10-05T01:48:20.044Z,32.50
2022-10-05T01:51:00.018Z,29.80
2022-10-05T01:53:45.265Z,34.30
2022-10-05T01:56:14.863Z,31.60
2022-10-05T01:59:03.241Z,29.70
2022-10-05T02:01:36.216Z,28.70
2022-10-05T02:04:59.835Z,29.80
2022-10-05T02:07:21.749Z,29.60
2022-10-05T02:09:59.773Z,27.50
2022-10-05T02:12:29.271Z,29.00
2022-10-05T02:14:58.685Z,28.10
2022-10-05T02:17:29.779Z,29.20
2022-10-05T02:19:59.359Z,29.00
2022-10-05T02:22:32.554Z,26.20
2022-10-05T02:25:01.072Z,25.50
2022-10-05T02:27:29.735Z,24.50
2022-10-05T02:29:58.912Z,25.40
2022-10-05T02:32:27.371Z,23.70
2022-10-05T02:34:53.958Z,25.90
2022-10-05T02:37:57.441Z,26.30
2022-10-05T02:40:41.753Z,26.10
2022-10-05T02:43:14.659Z,24.10
2022-10-05T02:46:09.868Z,22.40
2022-10-05T02:49:13.945Z,26.90
2022-10-05T02:51:51.762Z,31.30
2022-10-05T02:54:32.585Z,26.50
2022-10-05T02:57:16.764Z,23.90
2022-10-05T03:06:03.101Z,21.40
2022-10-05T03:08:47.374Z,20.50
2022-10-05T03:11:29.644Z,20.10
2022-10-05T03:14:29.025Z,21.30
2022-10-05T03:17:25.109Z,20.40
2022-10-05T03:20:13.920Z,20.10
2022-10-05T03:23:10.516Z,18.60
2022-10-05T03:26:02.653Z,18.40
2022-10-05T03:28:48.022Z,18.00
2022-10-05T03:31:26.669Z,19.20
2022-10-05T03:33:59.773Z,22.20
2022-10-05T03:36:39.013Z,21.70
2022-10-05T03:39:19.405Z,23.20
2022-10-05T03:41:51.633Z,26.20
2022-10-05T03:44:43.627Z,26.60
2022-10-05T03:47:28.834Z,20.10
2022-10-05T03:50:22.864Z,21.40
2022-10-05T03:52:51.725Z,23.80
2022-10-05T03:55:36.388Z,21.20
2022-10-05T03:58:10.679Z,20.20
2022-10-05T04:00:37.512Z,26.50
2022-10-05T04:03:18.923Z,20.50
2022-10-05T04:05:57.403Z,17.80
2022-10-05T04:08:47.877Z,16.60
2022-10-05T04:11:18.609Z,16.00
2022-10-05T04:13:54.768Z,14.60
2022-10-05T04:16:23.680Z,14.30
2022-10-05T04:18:59.084Z,13.70
2022-10-05T04:21:37.255Z,13.20
2022-10-05T04:24:07.004Z,13.10
2022-10-05T04:26:51.253Z,13.00
2022-10-05T04:29:46.150Z,12.60
2022-10-05T04:32:16.080Z,12.20
2022-10-05T04:34:45.372Z,12.10
2022-10-05T04:37:22.162Z,12.30
2022-10-05T04:39:59.043Z,12.50
2022-10-05T04:42:38.416Z,14.90
2022-10-05T04:45:09.714Z,15.30
2022-10-05T04:47:58.950Z,13.70
2022-10-05T04:50:54.829Z,12.50
2022-10-05T04:53:50.095Z,12.70
2022-10-05T04:56:20.159Z,13.00
2022-10-05T04:59:03.852Z,13.10
2022-10-05T05:01:39.927Z,12.50
2022-10-05T05:04:25.796Z,10.80
2022-10-05T05:07:28.889Z,10.80
2022-10-05T05:10:02.409Z,10.90
2022-10-05T05:12:49.607Z,11.20
2022-10-05T05:15:28.328Z,11.30
2022-10-05T05:18:10.325Z,10.70
2022-10-05T05:20:41.748Z,10.50
2022-10-05T05:23:27.154Z,11.50
2022-10-05T05:26:07.515Z,13.30
2022-10-05T05:28:54.666Z,11.40
2022-10-05T05:31:30.980Z,12.40
2022-10-05T05:34:04.117Z,12.10
2022-10-05T05:37:00.881Z,12.70
2022-10-05T05:40:14.208Z,13.60
2022-10-05T05:42:55.956Z,13.80
2022-10-05T05:45:48.777Z,14.40
2022-10-05T05:48:47.099Z,13.80
2022-10-05T05:51:22.403Z,13.00
2022-10-05T05:53:55.519Z,13.20
2022-10-05T05:56:30.646Z,11.10
2022-10-05T05:59:02.671Z,10.70
2022-10-05T06:01:46.163Z,9.60
2022-10-05T06:04:25.215Z,9.40
2022-10-05T06:06:53.212Z,9.40
2022-10-05T06:09:47.835Z,9.20
2022-10-05T06:12:32.877Z,9.60
2022-10-05T06:15:05.495Z,10.70
2022-10-05T06:17:41.584Z,10.90
2022-10-05T06:20:28.977Z,11.50
2022-10-05T06:22:56.007Z,9.80
2022-10-05T06:25:57.406Z,9.10
2022-10-05T06:28:25.114Z,8.70
2022-10-05T06:31:04.377Z,7.10
2022-10-05T06:33:52.005Z,8.30
2022-10-05T06:36:22.234Z,7.20
2022-10-05T06:39:07.935Z,7.00
2022-10-05T06:41:42.712Z,7.40
2022-10-05T06:44:23.441Z,6.40
2022-10-05T06:47:23.568Z,7.00
2022-10-05T06:49:56.842Z,6.10
2022-10-05T06:52:29.563Z,6.70
2022-10-05T06:54:58.846Z,6.50
2022-10-05T06:57:52.902Z,5.80
2022-10-05T07:00:24.971Z,6.10
2022-10-05T07:03:18.667Z,5.10
2022-10-05T07:05:54.566Z,5.40
2022-10-05T07:08:34.066Z,5.30
2022-10-05T07:11:18.912Z,5.40
2022-10-05T07:14:06.796Z,5.40
2022-10-05T07:16:47.161Z,5.90
2022-10-05T07:19:22.265Z,6.20
2022-10-05T07:21:58.165Z,5.30
2022-10-05T07:24:29.368Z,5.60
2022-10-05T07:30:56.436Z,5.10
2022-10-05T07:33:29.038Z,4.80
2022-10-05T07:36:20.316Z,4.60
2022-10-05T07:38:54.773Z,5.60
2022-10-05T07:41:47.953Z,4.00
2022-10-05T07:44:29.631Z,3.70
2022-10-05T07:47:04.913Z,3.50
2022-10-05T07:50:09.953Z,3.50
2022-10-05T07:52:37.972Z,3.50
2022-10-05T07:55:06.902Z,3.50
2022-10-05T07:57:58.672Z,7.10
2022-10-05T08:00:26.338Z,4.30
2022-10-05T08:02:58.646Z,3.50
2022-10-05T08:05:43.676Z,3.70
2022-10-05T08:08:15.505Z,3.70
2022-10-05T08:11:14.884Z,3.70
2022-10-05T08:13:56.579Z,4.10
2022-10-05T08:16:23.495Z,4.10
2022-10-05T08:19:06.746Z,3.70
2022-10-05T08:21:35.496Z,3.60
2022-10-05T08:24:07.207Z,3.20
2022-10-05T08:26:36.335Z,3.10
2022-10-05T08:29:17.278Z,3.80
2022-10-05T08:31:46.349Z,3.20
2022-10-05T08:34:25.113Z,3.50
2022-10-05T08:37:03.820Z,3.60
2022-10-05T08:39:34.363Z,4.20
2022-10-05T08:42:10.339Z,3.80
2022-10-05T08:44:55.320Z,3.00
2022-10-05T08:47:28.299Z,3.40
2022-10-05T08:52:56.445Z,3.50
2022-10-05T08:55:43.811Z,3.40
2022-10-05T08:58:19.977Z,3.80
2022-10-05T09:00:57.721Z,3.10
2022-10-05T09:03:51.614Z,3.60
2022-10-05T09:06:22.607Z,3.40
2022-10-05T09:08:55.695Z,3.20
2022-10-05T09:14:11.774Z,3.10
2022-10-05T09:16:59.308Z,3.30
2022-10-05T09:19:47.333Z,2.80
2022-10-05T09:22:38.622Z,3.20
2022-10-05T09:25:30.764Z,3.20
2022-10-05T09:28:21.927Z,3.90
2022-10-05T09:31:20.458Z,3.80
2022-10-05T09:34:26.006Z,3.90
2022-10-05T09:37:11.855Z,3.20
2022-10-05T09:40:04.041Z,3.40
2022-10-05T09:42:34.274Z,3.20
2022-10-05T09:45:45.881Z,3.40
2022-10-05T09:48:34.191Z,3.20
2022-10-05T09:51:00.762Z,3.00
2022-10-05T09:53:42.574Z,3.40
2022-10-05T09:56:21.266Z,3.30
2022-10-05T09:59:25.666Z,3.50
2022-10-05T10:02:30.912Z,3.40
2022-10-05T10:05:16.627Z,3.40
2022-10-05T10:08:00.820Z,3.50
2022-10-05T10:10:52.996Z,3.00
2022-10-05T10:13:31.722Z,3.40
2022-10-05T10:16:16.987Z,3.30
2022-10-05T10:19:06.794Z,3.50
2022-10-05T10:21:54.828Z,4.10
2022-10-05T10:24:26.138Z,3.10
2022-10-05T10:27:05.726Z,3.20
2022-10-05T10:29:33.982Z,2.80
2022-10-05T10:32:21.656Z,2.70
2022-10-05T10:35:00.499Z,2.60
2022-10-05T10:38:12.480Z,2.40
2022-10-05T10:41:02.703Z,2.60
2022-10-05T10:43:29.815Z,4.60
2022-10-05T10:46:00.027Z,3.90
2022-10-05T10:48:29.543Z,2.90
2022-10-05T10:51:14.612Z,3.40
2022-10-05T10:54:05.416Z,3.40
2022-10-05T10:56:55.505Z,3.30
2022-10-05T11:00:20.881Z,2.80
2022-10-05T11:02:54.907Z,3.20
2022-10-05T11:05:52.265Z,2.90
2022-10-05T11:08:37.894Z,2.50
2022-10-05T11:11:29.567Z,3.10
2022-10-05T11:14:04.997Z,4.10
2022-10-05T11:16:43.675Z,3.40
2022-10-05T11:19:10.441Z,3.50
2022-10-05T11:22:00.280Z,3.70
2022-10-05T11:24:50.589Z,3.50
2022-10-05T11:27:41.398Z,4.20
2022-10-05T11:30:40.306Z,3.50
2022-10-05T11:33:34.646Z,4.40
2022-10-05T11:36:26.238Z,4.10
2022-10-05T11:39:05.482Z,3.60
2022-10-05T11:42:09.431Z,3.60
2022-10-05T11:44:54.642Z,4.00
2022-10-05T11:47:42.175Z,3.60
2022-10-05T11:50:26.905Z,3.70
2022-10-05T11:53:00.116Z,2.80
2022-10-05T11:58:15.962Z,3.70
2022-10-05T12:00:44.289Z,3.10
2022-10-05T12:03:35.442Z,3.30
2022-10-05T12:06:25.732Z,3.90
2022-10-05T12:09:14.466Z,3.90
2022-10-05T12:12:23.163Z,3.00
2022-10-05T12:14:54.665Z,2.90
2022-10-05T12:17:21.258Z,3.40
2022-10-05T12:20:28.255Z,3.20
2022-10-05T12:23:00.743Z,3.70
2022-10-05T12:25:33.131Z,3.40
2022-10-05T12:28:05.063Z,3.50
2022-10-05T12:30:58.204Z,2.90
2022-10-05T12:33:26.551Z,3.10
2022-10-05T12:35:56.128Z,3.10
2022-10-05T12:38:30.788Z,3.40
2022-10-05T12:41:04.526Z,3.60
2022-10-05T12:43:54.385Z,3.50
2022-10-05T12:46:29.906Z,3.30
2022-10-05T12:49:06.978Z,3.50
2022-10-05T12:51:58.533Z,3.50
2022-10-05T12:54:47.704Z,3.60
2022-10-05T12:57:32.665Z,3.10
2022-10-05T13:00:01.747Z,3.70
2022-10-05T13:02:42.483Z,3.20
2022-10-05T13:05:09.538Z,3.20
2022-10-05T13:07:54.774Z,3.40
2022-10-05T13:10:39.415Z,3.80
2022-10-05T13:13:34.231Z,3.80
2022-10-05T13:16:17.223Z,3.70
2022-10-05T13:19:15.563Z,3.10
2022-10-05T13:22:10.274Z,3.40
2022-10-05T13:24:59.515Z,3.70
2022-10-05T13:27:47.266Z,3.60
2022-10-05T13:30:19.150Z,3.70
2022-10-05T13:32:47.953Z,3.90
2022-10-05T13:35:53.406Z,5.10
2022-10-05T13:38:34.171Z,4.30
2022-10-05T13:41:14.782Z,3.90
2022-10-05T13:43:51.482Z,3.90
2022-10-05T13:46:23.732Z,4.20
2022-10-05T13:49:09.093Z,4.10
2022-10-05T13:51:41.108Z,3.60
2022-10-05T13:54:45.160Z,3.80
2022-10-05T13:59:51.218Z,3.30
2022-10-05T14:02:40.147Z,4.00
2022-10-05T14:05:29.795Z,3.40
2022-10-05T14:08:02.475Z,4.00
2022-10-05T14:10:38.590Z,3.40
2022-10-05T14:13:32.367Z,4.10
2022-10-05T14:18:28.032Z,3.70
2022-10-05T14:21:18.822Z,3.80
2022-10-05T14:23:45.367Z,3.60
2022-10-05T14:26:27.526Z,4.10
2022-10-05T14:29:19.482Z,4.20
2022-10-05T14:31:58.476Z,4.50
2022-10-05T14:34:35.539Z,3.90
2022-10-05T14:37:23.398Z,4.00
2022-10-05T14:39:52.220Z,4.30
2022-10-05T14:42:27.809Z,4.20
2022-10-05T14:45:11.920Z,4.20
2022-10-05T14:47:54.402Z,4.10
2022-10-05T14:50:26.213Z,3.90
2022-10-05T14:53:22.571Z,4.80
2022-10-05T14:55:55.917Z,4.30
2022-10-05T15:00:56.955Z,4.70
2022-10-05T15:03:41.770Z,5.40
2022-10-05T15:06:16.262Z,4.30
2022-10-05T15:09:17.652Z,4.30
2022-10-05T15:11:47.132Z,4.40
2022-10-05T15:14:25.445Z,4.70
2022-10-05T15:16:54.044Z,3.90
2022-10-05T15:19:27.873Z,3.90
2022-10-05T15:22:19.541Z,4.30
2022-10-05T15:24:53.232Z,4.70
2022-10-05T15:27:36.474Z,4.80
2022-10-05T15:30:13.997Z,4.30
2022-10-05T15:33:08.729Z,4.60
2022-10-05T15:35:44.607Z,4.10
2022-10-05T15:38:34.258Z,4.40
2022-10-05T15:41:20.619Z,4.10
2022-10-05T15:44:13.451Z,4.70
2022-10-05T15:47:02.834Z,4.70
2022-10-05T15:49:37.081Z,5.80
2022-10-05T15:52:12.176Z,5.60
2022-10-05T15:55:04.804Z,5.90
2022-10-05T15:57:53.643Z,6.70
2022-10-05T16:00:21.047Z,6.40
2022-10-05T16:03:02.662Z,6.20
2022-10-05T16:05:56.648Z,6.50
2022-10-05T16:11:42.539Z,7.80
2022-10-05T16:14:43.521Z,9.40
2022-10-05T16:17:47.324Z,7.90
2022-10-05T16:20:23.007Z,6.70
2022-10-05T16:22:52.131Z,6.70
2022-10-05T16:25:34.948Z,6.80
2022-10-05T16:28:20.461Z,6.80
2022-10-05T16:31:03.269Z,6.70
2022-10-05T16:33:48.007Z,6.90
2022-10-05T16:36:26.712Z,7.10
2022-10-05T16:39:01.330Z,6.60
2022-10-05T16:41:35.105Z,6.80
2022-10-05T16:44:13.466Z,8.20
2022-10-05T16:46:47.098Z,7.60
2022-10-05T16:49:38.537Z,15.30
2022-10-05T16:52:07.224Z,32.60
2022-10-05T16:54:47.713Z,22.70
2022-10-05T16:57:27.543Z,26.40
2022-10-05T17:00:19.472Z,17.80
2022-10-05T17:02:55.403Z,27.50
2022-10-05T17:06:07.851Z,44.60
2022-10-05T17:09:19.083Z,41.90
2022-10-05T17:12:10.663Z,20.70
2022-10-05T17:14:59.292Z,23.50
2022-10-05T17:17:51.997Z,13.80
2022-10-05T17:20:42.767Z,12.40
2022-10-05T17:23:31.244Z,14.60
2022-10-05T17:26:34.418Z,49.80
2022-10-05T17:29:32.161Z,41.20
2022-10-05T17:32:12.235Z,71.80
2022-10-05T17:34:39.995Z,94.70
2022-10-05T17:37:36.012Z,38.80
2022-10-05T17:40:28.584Z,16.30
2022-10-05T17:43:17.310Z,15.60
2022-10-05T17:45:43.807Z,14.60
2022-10-05T17:48:13.337Z,15.50
2022-10-05T17:51:05.490Z,13.30
2022-10-05T17:54:07.409Z,14.20
2022-10-05T17:56:48.890Z,14.80
2022-10-05T17:59:46.354Z,11.90
2022-10-05T18:02:43.455Z,10.80
2022-10-05T18:05:12.197Z,9.20
2022-10-05T18:07:39.562Z,9.90
2022-10-05T18:10:12.204Z,11.00
2022-10-05T18:12:42.514Z,14.60
2022-10-05T18:15:24.477Z,15.00
2022-10-05T18:17:51.560Z,19.60
2022-10-05T18:20:24.000Z,11.20
2022-10-05T18:22:53.348Z,11.00
2022-10-05T18:25:27.206Z,9.50
2022-10-05T18:28:09.117Z,10.50
2022-10-05T18:31:05.929Z,9.40
2022-10-05T18:33:54.689Z,8.20
2022-10-05T18:36:44.579Z,7.00
2022-10-05T18:39:15.394Z,8.30
2022-10-05T18:42:22.993Z,16.00
2022-10-05T18:44:51.734Z,8.80
2022-10-05T18:47:22.458Z,15.40
2022-10-05T18:49:51.838Z,9.70
2022-10-05T18:52:36.599Z,8.70
2022-10-05T18:55:24.829Z,7.80
2022-10-05T18:58:00.750Z,7.10
2022-10-05T19:00:40.994Z,7.50
2022-10-05T19:03:26.846Z,10.60
2022-10-05T19:06:13.043Z,7.00
2022-10-05T19:09:24.741Z,6.20
2022-10-05T19:12:12.215Z,6.20
2022-10-05T19:15:06.784Z,6.40
2022-10-05T19:17:52.189Z,6.40
2022-10-05T19:20:41.698Z,7.30
2022-10-05T19:23:16.872Z,9.20
2022-10-05T19:25:47.689Z,9.20
2022-10-05T19:28:29.716Z,10.30
2022-10-05T19:31:21.335Z,8.20
2022-10-05T19:34:10.746Z,7.30
2022-10-05T19:37:10.519Z,6.70
2022-10-05T19:39:46.433Z,6.10
2022-10-05T19:42:47.329Z,6.40
2022-10-05T19:45:27.224Z,5.70
2022-10-05T19:48:02.918Z,5.90
2022-10-05T19:50:30.934Z,7.00
2022-10-05T19:53:23.178Z,7.10
2022-10-05T19:55:49.854Z,8.40
2022-10-05T19:58:25.239Z,7.70
2022-10-05T20:00:58.648Z,7.80
2022-10-05T20:03:32.439Z,7.70
2022-10-05T20:06:06.003Z,8.70
2022-10-05T20:11:19.566Z,9.80
2022-10-05T20:13:48.475Z,13.30
2022-10-05T20:16:33.814Z,11.30
2022-10-05T20:19:19.694Z,9.00
2022-10-05T20:21:46.203Z,11.00
2022-10-05T20:24:20.958Z,12.40
2022-10-05T20:27:16.542Z,13.70
2022-10-05T20:29:44.266Z,11.60
2022-10-05T20:32:12.292Z,12.10
2022-10-05T20:34:43.557Z,12.90
2022-10-05T20:37:11.642Z,11.50
2022-10-05T20:39:38.419Z,12.90
2022-10-05T20:42:05.273Z,12.10
2022-10-05T20:44:31.877Z,10.20
2022-10-05T20:46:58.723Z,8.00
2022-10-05T20:49:26.580Z,7.40
2022-10-05T20:51:55.685Z,7.30
2022-10-05T20:54:25.283Z,9.00
2022-10-05T20:56:52.386Z,10.90
2022-10-05T20:59:19.123Z,12.40
2022-10-05T21:01:48.137Z,11.30
2022-10-05T21:04:18.991Z,12.40
2022-10-05T21:06:45.954Z,12.60
2022-10-05T21:09:14.702Z,11.80
2022-10-05T21:11:45.177Z,12.30
2022-10-05T21:14:11.947Z,11.30
2022-10-05T21:16:40.923Z,14.30
2022-10-05T21:19:12.307Z,18.20
2022-10-05T21:21:40.170Z,19.90
2022-10-05T21:24:06.908Z,18.10
2022-10-05T21:26:33.838Z,20.70
2022-10-05T21:29:01.124Z,21.70
2022-10-05T21:31:28.276Z,20.30
2022-10-05T21:33:55.167Z,22.80
2022-10-05T21:36:24.578Z,18.90
2022-10-05T21:38:51.953Z,17.50
2022-10-05T21:41:18.982Z,18.30
2022-10-05T21:43:45.703Z,17.20
2022-10-05T21:46:14.592Z,19.40
2022-10-05T21:48:41.558Z,17.90
2022-10-05T21:51:08.777Z,16.20
2022-10-05T21:53:37.820Z,18.40
2022-10-05T21:56:05.684Z,15.60
2022-10-05T21:58:32.410Z,16.60
2022-10-05T22:00:58.905Z,16.00
2022-10-05T22:03:25.692Z,15.70
2022-10-05T22:05:52.395Z,13.60
2022-10-05T22:08:24.706Z,14.40
2022-10-05T22:10:52.922Z,15.70
2022-10-05T22:13:19.830Z,12.80
2022-10-05T22:15:46.455Z,12.00
2022-10-05T22:18:15.899Z,13.30
2022-10-05T22:20:42.943Z,15.30
2022-10-05T22:23:09.477Z,13.20
2022-10-05T22:25:36.172Z,11.60
2022-10-05T22:28:02.908Z,12.40
2022-10-05T22:30:29.521Z,9.90
2022-10-05T22:32:56.277Z,10.90
2022-10-05T22:35:22.884Z,14.10
2022-10-05T22:37:49.403Z,13.40
2022-10-05T22:40:16.289Z,12.00
2022-10-05T22:42:43.271Z,9.60
2022-10-05T22:45:09.734Z,7.80
2022-10-05T22:47:36.358Z,7.10
2022-10-05T22:50:03.458Z,7.20
2022-10-05T22:52:29.905Z,6.20
2022-10-05T22:54:56.830Z,6.40
2022-10-05T22:57:23.665Z,5.60
2022-10-05T22:59:50.169Z,6.30
2022-10-05T23:02:18.808Z,5.90
2022-10-05T23:04:46.160Z,6.50
2022-10-05T23:07:12.604Z,6.40
2022-10-05T23:09:39.421Z,5.60
2022-10-05T23:12:06.151Z,5.80
2022-10-05T23:14:33.401Z,6.50
2022-10-05T23:17:00.432Z,5.70
2022-10-05T23:19:26.990Z,4.90
2022-10-05T23:21:53.626Z,4.90
2022-10-05T23:24:20.570Z,4.90
2022-10-05T23:26:47.027Z,5.00
2022-10-05T23:29:13.525Z,5.80
2022-10-05T23:31:40.790Z,5.30
2022-10-05T23:34:07.427Z,7.60
2022-10-05T23:36:33.918Z,7.00
2022-10-05T23:39:01.001Z,5.00
2022-10-05T23:41:27.509Z,6.20
2022-10-05T23:43:55.391Z,5.20
2022-10-05T23:46:22.588Z,5.60
2022-10-05T23:48:50.536Z,6.10
2022-10-05T23:51:17.063Z,5.40
2022-10-05T23:53:44.224Z,5.80
2022-10-05T23:56:10.690Z,5.10
2022-10-05T23:58:37.337Z,4.50
